Terminal Aerodrome Forecast
Issued by NWS Des Moines, IA

Home | Current Version | Previous Version | Text Only | Print | Product List | Glossary On
Versions: 1 2 3 4 5 6 7 8 9 10 11 12 13 14 15
000
FTUS43 KDMX 051720
TAFALO
TAF
KALO 051720Z 0518/0618 31005KT P6SM VCSH BKN100
     FM052200 22004KT P6SM FEW100
     FM061600 24012KT P6SM SKC=

USA.gov is the U.S. government's official web portal to all federal, state and local government web resources and services.